createdAt,value
2022-12-18T00:00:10.946Z,1017.7
2022-12-18T00:01:10.937Z,1017.65
2022-12-18T00:02:10.921Z,1017.68
2022-12-18T00:03:10.912Z,1017.75
2022-12-18T00:04:10.907Z,1017.72
2022-12-18T00:05:10.893Z,1017.68
2022-12-18T00:06:10.884Z,1017.67
2022-12-18T00:07:10.877Z,1017.7
2022-12-18T00:08:10.875Z,1017.69
2022-12-18T00:09:10.852Z,1017.78
2022-12-18T00:10:10.843Z,1017.81
2022-12-18T00:11:10.842Z,1017.77
2022-12-18T00:13:10.816Z,1017.86
2022-12-18T00:14:10.810Z,1017.93
2022-12-18T00:15:10.798Z,1017.92
2022-12-18T00:16:10.786Z,1017.88
2022-12-18T00:17:10.776Z,1017.89
2022-12-18T00:18:10.768Z,1017.83
2022-12-18T00:19:10.760Z,1017.84
2022-12-18T00:20:10.755Z,1017.82
2022-12-18T00:21:10.744Z,1017.86
2022-12-18T00:22:10.728Z,1017.85
2022-12-18T00:23:10.724Z,1017.76
2022-12-18T00:24:10.708Z,1017.79
2022-12-18T00:25:10.698Z,1017.75
2022-12-18T00:26:10.694Z,1017.76
2022-12-18T00:27:10.676Z,1017.78
2022-12-18T00:28:10.663Z,1017.77
2022-12-18T00:29:10.663Z,1017.72
2022-12-18T00:30:18.214Z,1017.71
2022-12-18T00:31:10.634Z,1017.66
2022-12-18T00:32:10.625Z,1017.66
2022-12-18T00:33:10.623Z,1017.69
2022-12-18T00:34:18.185Z,1017.68
2022-12-18T00:35:10.600Z,1017.62
2022-12-18T00:36:10.588Z,1017.79
2022-12-18T00:37:10.578Z,1017.84
2022-12-18T00:38:10.568Z,1017.85
2022-12-18T00:39:10.561Z,1017.89
2022-12-18T00:40:10.551Z,1017.9
2022-12-18T00:41:10.543Z,1017.88
2022-12-18T00:42:10.532Z,1017.86
2022-12-18T00:43:10.518Z,1017.9
2022-12-18T00:44:10.508Z,1017.9
2022-12-18T00:45:10.507Z,1018
2022-12-18T00:46:10.487Z,1017.91
2022-12-18T00:47:10.484Z,1017.98
2022-12-18T00:48:10.485Z,1017.95
2022-12-18T00:49:20.310Z,1017.88
2022-12-18T00:50:10.448Z,1017.91
2022-12-18T00:51:10.434Z,1017.83
2022-12-18T00:52:10.429Z,1017.8
2022-12-18T00:53:10.415Z,1017.7
2022-12-18T00:54:10.406Z,1017.75
2022-12-18T00:55:10.593Z,1017.74
2022-12-18T00:56:10.419Z,1017.78
2022-12-18T00:57:10.425Z,1017.84
2022-12-18T00:58:10.372Z,1017.82
2022-12-18T00:59:10.359Z,1017.84
2022-12-18T01:00:10.363Z,1017.86
2022-12-18T01:01:10.343Z,1017.9
2022-12-18T01:02:10.365Z,1017.91
2022-12-18T01:03:10.323Z,1017.88
2022-12-18T01:04:10.310Z,1017.9
2022-12-18T01:05:10.299Z,1017.87
2022-12-18T01:06:10.288Z,1017.9
2022-12-18T01:07:10.294Z,1017.92
2022-12-18T01:08:10.277Z,1017.9
2022-12-18T01:09:10.757Z,1017.86
2022-12-18T01:10:10.249Z,1017.87
2022-12-18T01:11:10.289Z,1017.89
2022-12-18T01:12:10.230Z,1017.83
2022-12-18T01:13:10.223Z,1017.87
2022-12-18T01:14:10.208Z,1017.84
2022-12-18T01:15:10.200Z,1017.86
2022-12-18T01:16:10.195Z,1017.77
2022-12-18T01:17:10.626Z,1017.79
2022-12-18T01:18:10.172Z,1017.77
2022-12-18T01:19:10.180Z,1017.77
2022-12-18T01:20:10.147Z,1017.82
2022-12-18T01:21:10.207Z,1017.78
2022-12-18T01:22:10.127Z,1017.7
2022-12-18T01:23:10.174Z,1017.68
2022-12-18T01:24:10.139Z,1017.66
2022-12-18T01:25:10.141Z,1017.71
2022-12-18T01:26:10.090Z,1017.7
2022-12-18T01:27:10.079Z,1017.65
2022-12-18T01:28:10.072Z,1017.68
2022-12-18T01:29:10.059Z,1017.68
2022-12-18T01:30:10.054Z,1017.68
2022-12-18T01:31:10.039Z,1017.72
2022-12-18T01:32:10.037Z,1017.76
2022-12-18T01:33:10.022Z,1017.79
2022-12-18T01:34:10.008Z,1017.74
2022-12-18T01:35:10.002Z,1017.78
2022-12-18T01:36:10.002Z,1017.81
2022-12-18T01:37:09.979Z,1017.77
2022-12-18T01:38:09.977Z,1017.78
2022-12-18T01:39:09.969Z,1017.81
2022-12-18T01:40:09.948Z,1017.74
2022-12-18T01:41:09.942Z,1017.8
2022-12-18T01:42:09.944Z,1017.82
2022-12-18T01:43:09.920Z,1017.87
2022-12-18T01:44:09.927Z,1017.86
2022-12-18T01:45:09.903Z,1017.88
2022-12-18T01:46:09.903Z,1017.89
2022-12-18T01:47:09.880Z,1017.85
2022-12-18T01:48:09.876Z,1017.86
2022-12-18T01:49:09.863Z,1017.87
2022-12-18T01:50:09.853Z,1017.94
2022-12-18T01:51:09.845Z,1017.94
2022-12-18T01:52:09.837Z,1017.92
2022-12-18T01:53:09.820Z,1017.98
2022-12-18T01:54:09.811Z,1017.95
2022-12-18T01:55:09.802Z,1017.88
2022-12-18T01:56:09.826Z,1017.91
2022-12-18T01:57:09.785Z,1017.89
2022-12-18T01:58:09.784Z,1017.85
2022-12-18T01:59:09.764Z,1017.87
2022-12-18T02:00:09.800Z,1017.88
2022-12-18T02:01:09.746Z,1017.93
2022-12-18T02:02:09.736Z,1017.86
2022-12-18T02:03:09.729Z,1017.82
2022-12-18T02:04:09.715Z,1017.79
2022-12-18T02:05:09.705Z,1017.77
2022-12-18T02:06:09.697Z,1017.76
2022-12-18T02:07:09.700Z,1017.77
2022-12-18T02:08:09.676Z,1017.77
2022-12-18T02:09:09.667Z,1017.79
2022-12-18T02:10:09.656Z,1017.82
2022-12-18T02:11:10.022Z,1017.78
2022-12-18T02:12:09.637Z,1017.74
2022-12-18T02:13:09.649Z,1017.7
2022-12-18T02:14:09.614Z,1017.71
2022-12-18T02:15:09.606Z,1017.69
2022-12-18T02:16:09.592Z,1017.71
2022-12-18T02:17:09.586Z,1017.66
2022-12-18T02:18:09.577Z,1017.66
2022-12-18T02:19:09.566Z,1017.65
2022-12-18T02:20:09.554Z,1017.69
2022-12-18T02:21:09.574Z,1017.65
2022-12-18T02:22:09.535Z,1017.66
2022-12-18T02:23:09.526Z,1017.65
2022-12-18T02:24:09.520Z,1017.66
2022-12-18T02:25:09.504Z,1017.71
2022-12-18T02:26:09.531Z,1017.65
2022-12-18T02:27:09.486Z,1017.67
2022-12-18T02:28:09.478Z,1017.69
2022-12-18T02:29:09.468Z,1017.65
2022-12-18T02:30:09.462Z,1017.57
2022-12-18T02:31:09.462Z,1017.65
2022-12-18T02:32:09.432Z,1017.65
2022-12-18T02:33:09.423Z,1017.73
2022-12-18T02:34:09.420Z,1017.68
2022-12-18T02:35:09.412Z,1017.72
2022-12-18T02:36:09.403Z,1017.66
2022-12-18T02:37:09.386Z,1017.67
2022-12-18T02:38:09.381Z,1017.72
2022-12-18T02:39:09.366Z,1017.7
2022-12-18T02:40:09.356Z,1017.67
2022-12-18T02:41:09.349Z,1017.65
2022-12-18T02:42:09.339Z,1017.7
2022-12-18T02:43:09.325Z,1017.78
2022-12-18T02:44:09.320Z,1017.7
2022-12-18T02:45:09.306Z,1017.69
2022-12-18T02:46:09.296Z,1017.59
2022-12-18T02:47:09.332Z,1017.57
2022-12-18T02:48:09.299Z,1017.53
2022-12-18T02:49:09.268Z,1017.55
2022-12-18T02:50:09.259Z,1017.55
2022-12-18T02:51:09.256Z,1017.56
2022-12-18T02:52:09.246Z,1017.51
2022-12-18T02:53:09.230Z,1017.58
2022-12-18T02:54:09.220Z,1017.51
2022-12-18T02:55:09.211Z,1017.54
2022-12-18T02:56:09.201Z,1017.59
2022-12-18T02:57:09.195Z,1017.59
2022-12-18T02:58:09.207Z,1017.56
2022-12-18T02:59:09.182Z,1017.57
2022-12-18T03:00:09.157Z,1017.48
2022-12-18T03:01:09.146Z,1017.52
2022-12-18T03:02:09.138Z,1017.55
2022-12-18T03:03:09.132Z,1017.56
2022-12-18T03:04:09.147Z,1017.51
2022-12-18T03:05:09.288Z,1017.59
2022-12-18T03:06:09.101Z,1017.56
2022-12-18T03:07:09.090Z,1017.66
2022-12-18T03:08:09.085Z,1017.65
2022-12-18T03:09:09.068Z,1017.66
2022-12-18T03:10:09.075Z,1017.55
2022-12-18T03:11:09.060Z,1017.59
2022-12-18T03:12:09.208Z,1017.63
2022-12-18T03:13:09.030Z,1017.66
2022-12-18T03:14:09.022Z,1017.6
2022-12-18T03:15:09.020Z,1017.71
2022-12-18T03:16:09.005Z,1017.69
2022-12-18T03:17:09.000Z,1017.77
2022-12-18T03:18:08.982Z,1017.77
2022-12-18T03:19:08.978Z,1017.75
2022-12-18T03:20:08.959Z,1017.77
2022-12-18T03:21:08.953Z,1017.77
2022-12-18T03:22:08.939Z,1017.74
2022-12-18T03:23:08.959Z,1017.74
2022-12-18T03:24:08.922Z,1017.75
2022-12-18T03:25:08.920Z,1017.73
2022-12-18T03:26:08.905Z,1017.73
2022-12-18T03:27:08.907Z,1017.75
2022-12-18T03:28:08.881Z,1017.69
2022-12-18T03:29:08.871Z,1017.75
2022-12-18T03:30:08.892Z,1017.76
2022-12-18T03:31:08.852Z,1017.77
2022-12-18T03:32:08.893Z,1017.83
2022-12-18T03:33:08.842Z,1017.88
2022-12-18T03:34:08.821Z,1017.84
2022-12-18T03:35:08.812Z,1017.85
2022-12-18T03:36:08.805Z,1017.83
2022-12-18T03:37:08.796Z,1017.85
2022-12-18T03:38:08.778Z,1017.76
2022-12-18T03:39:08.776Z,1017.76
2022-12-18T03:40:08.762Z,1017.62
2022-12-18T03:41:08.764Z,1017.63
2022-12-18T03:42:08.751Z,1017.66
2022-12-18T03:43:08.730Z,1017.71
2022-12-18T03:44:08.726Z,1017.61
2022-12-18T03:45:08.714Z,1017.69
2022-12-18T03:46:08.701Z,1017.67
2022-12-18T03:47:08.704Z,1017.65
2022-12-18T03:48:08.684Z,1017.64
2022-12-18T03:49:08.675Z,1017.67
2022-12-18T03:50:08.663Z,1017.7
2022-12-18T03:51:08.651Z,1017.64
2022-12-18T03:52:08.676Z,1017.66
2022-12-18T03:53:08.636Z,1017.64
2022-12-18T03:54:08.629Z,1017.58
2022-12-18T03:55:08.904Z,1017.67
2022-12-18T03:56:08.604Z,1017.67
2022-12-18T03:57:08.600Z,1017.58
2022-12-18T03:58:08.620Z,1017.67
2022-12-18T03:59:08.578Z,1017.63
2022-12-18T04:00:08.564Z,1017.63
2022-12-18T04:01:08.618Z,1017.59
2022-12-18T04:02:08.567Z,1017.64
2022-12-18T04:03:08.534Z,1017.62
2022-12-18T04:04:08.522Z,1017.7
2022-12-18T04:05:08.514Z,1017.7
2022-12-18T04:06:08.505Z,1017.65
2022-12-18T04:07:08.500Z,1017.66
2022-12-18T04:08:08.511Z,1017.65
2022-12-18T04:09:08.471Z,1017.64
2022-12-18T04:10:08.490Z,1017.62
2022-12-18T04:11:08.460Z,1017.65
2022-12-18T04:12:08.446Z,1017.67
2022-12-18T04:13:08.435Z,1017.67
2022-12-18T04:14:08.472Z,1017.68
2022-12-18T04:15:08.412Z,1017.76
2022-12-18T04:16:08.406Z,1017.68
2022-12-18T04:17:08.397Z,1017.69
2022-12-18T04:18:08.396Z,1017.69
2022-12-18T04:19:08.387Z,1017.73
2022-12-18T04:20:08.375Z,1017.72
2022-12-18T04:21:08.359Z,1017.75
2022-12-18T04:22:08.356Z,1017.71
2022-12-18T04:23:08.339Z,1017.72
2022-12-18T04:24:08.333Z,1017.67
2022-12-18T04:25:08.315Z,1017.68
2022-12-18T04:26:08.311Z,1017.73
2022-12-18T04:27:08.299Z,1017.7
2022-12-18T04:28:08.289Z,1017.66
2022-12-18T04:29:08.275Z,1017.69
2022-12-18T04:30:08.268Z,1017.72
2022-12-18T04:31:08.262Z,1017.73
2022-12-18T04:32:08.248Z,1017.68
2022-12-18T04:33:08.239Z,1017.79
2022-12-18T04:34:08.235Z,1017.69
2022-12-18T04:35:08.217Z,1017.77
2022-12-18T04:36:08.206Z,1017.75
2022-12-18T04:37:08.204Z,1017.74
2022-12-18T04:38:08.194Z,1017.76
2022-12-18T04:39:08.180Z,1017.73
2022-12-18T04:40:08.172Z,1017.72
2022-12-18T04:41:08.161Z,1017.76
2022-12-18T04:42:08.152Z,1017.75
2022-12-18T04:43:08.137Z,1017.78
2022-12-18T04:44:08.151Z,1017.85
2022-12-18T04:45:08.118Z,1017.85
2022-12-18T04:46:08.107Z,1017.9
2022-12-18T04:47:08.099Z,1017.92
2022-12-18T04:48:08.093Z,1017.94
2022-12-18T04:49:08.102Z,1017.93
2022-12-18T04:50:08.070Z,1017.9
2022-12-18T04:51:08.058Z,1017.93
2022-12-18T04:52:08.054Z,1017.92
2022-12-18T04:53:08.046Z,1017.88
2022-12-18T04:54:08.044Z,1017.94
2022-12-18T04:55:08.032Z,1017.94
2022-12-18T04:56:08.012Z,1017.85
2022-12-18T04:57:07.998Z,1017.87
2022-12-18T04:58:08.007Z,1017.77
2022-12-18T04:59:08.032Z,1017.79
2022-12-18T05:00:07.970Z,1017.81
2022-12-18T05:01:07.973Z,1017.78
2022-12-18T05:02:07.954Z,1017.77
2022-12-18T05:03:07.938Z,1017.76
2022-12-18T05:04:07.972Z,1017.77
2022-12-18T05:05:08.150Z,1017.77
2022-12-18T05:06:07.909Z,1017.79
2022-12-18T05:07:07.902Z,1017.86
2022-12-18T05:08:07.903Z,1017.85
2022-12-18T05:09:07.882Z,1017.86
2022-12-18T05:10:07.874Z,1017.87
2022-12-18T05:11:07.867Z,1017.85
2022-12-18T05:12:07.855Z,1017.84
2022-12-18T05:13:07.856Z,1017.87
2022-12-18T05:14:07.831Z,1017.87
2022-12-18T05:15:07.833Z,1017.77
2022-12-18T05:16:07.818Z,1017.85
2022-12-18T05:17:07.804Z,1017.88
2022-12-18T05:18:07.794Z,1017.92
2022-12-18T05:19:07.784Z,1017.83
2022-12-18T05:20:07.776Z,1017.83
2022-12-18T05:21:07.762Z,1017.82
2022-12-18T05:22:07.751Z,1017.78
2022-12-18T05:23:07.747Z,1017.82
2022-12-18T05:24:07.744Z,1017.78
2022-12-18T05:25:07.728Z,1017.76
2022-12-18T05:26:07.716Z,1017.8
2022-12-18T05:27:07.708Z,1017.8
2022-12-18T05:28:07.697Z,1017.77
2022-12-18T05:29:07.688Z,1017.75
2022-12-18T05:30:07.678Z,1017.75
2022-12-18T05:31:07.668Z,1017.78
2022-12-18T05:32:07.657Z,1017.75
2022-12-18T05:33:07.647Z,1017.78
2022-12-18T05:34:07.639Z,1017.69
2022-12-18T05:35:07.642Z,1017.76
2022-12-18T05:36:07.616Z,1017.83
2022-12-18T05:37:07.609Z,1017.81
2022-12-18T05:38:07.599Z,1017.79
2022-12-18T05:39:07.586Z,1017.79
2022-12-18T05:40:07.577Z,1017.78
2022-12-18T05:41:07.569Z,1017.84
2022-12-18T05:42:07.556Z,1017.84
2022-12-18T05:43:07.547Z,1017.85
2022-12-18T05:44:07.602Z,1017.86
2022-12-18T05:45:07.536Z,1017.92
2022-12-18T05:46:07.513Z,1017.94
2022-12-18T05:47:07.511Z,1017.91
2022-12-18T05:48:07.495Z,1017.88
2022-12-18T05:49:07.514Z,1017.86
2022-12-18T05:50:07.489Z,1017.84
2022-12-18T05:51:07.467Z,1017.87
2022-12-18T05:52:07.460Z,1017.82
2022-12-18T05:53:07.455Z,1017.82
2022-12-18T05:54:07.442Z,1017.88
2022-12-18T05:55:07.454Z,1017.8
2022-12-18T05:56:07.416Z,1017.87
2022-12-18T05:57:07.406Z,1017.91
2022-12-18T05:58:07.415Z,1017.84
2022-12-18T05:59:07.392Z,1017.83
2022-12-18T06:00:07.461Z,1017.89
2022-12-18T06:01:07.372Z,1017.88
2022-12-18T06:02:07.363Z,1017.83
2022-12-18T06:03:07.346Z,1017.85
2022-12-18T06:04:07.342Z,1017.9
2022-12-18T06:05:07.353Z,1017.87
2022-12-18T06:06:07.319Z,1017.89
2022-12-18T06:07:07.309Z,1017.88
2022-12-18T06:08:07.298Z,1017.89
2022-12-18T06:09:07.291Z,1017.87
2022-12-18T06:10:07.282Z,1017.88
2022-12-18T06:11:07.271Z,1017.87
2022-12-18T06:12:07.269Z,1017.9
2022-12-18T06:13:07.253Z,1017.91
2022-12-18T06:14:07.304Z,1017.9
2022-12-18T06:15:07.650Z,1017.95
2022-12-18T06:16:07.224Z,1017.97
2022-12-18T06:17:07.210Z,1017.97
2022-12-18T06:18:07.202Z,1018
2022-12-18T06:19:07.189Z,1017.94
2022-12-18T06:20:07.178Z,1017.93
2022-12-18T06:21:07.170Z,1017.94
2022-12-18T06:22:07.161Z,1017.94
2022-12-18T06:23:07.152Z,1017.95
2022-12-18T06:24:07.261Z,1017.91
2022-12-18T06:25:07.130Z,1017.93
2022-12-18T06:26:07.125Z,1017.87
2022-12-18T06:27:07.112Z,1017.93
2022-12-18T06:28:07.104Z,1017.92
2022-12-18T06:29:07.100Z,1017.98
2022-12-18T06:30:07.084Z,1018
2022-12-18T06:31:07.072Z,1018.04
2022-12-18T06:32:07.067Z,1018.07
2022-12-18T06:33:07.066Z,1018.09
2022-12-18T06:34:07.067Z,1018.09
2022-12-18T06:35:07.041Z,1018.09
2022-12-18T06:36:07.028Z,1018.07
2022-12-18T06:37:07.013Z,1018.12
2022-12-18T06:38:07.011Z,1018.11
2022-12-18T06:39:07.003Z,1018.15
2022-12-18T06:40:06.990Z,1018.18
2022-12-18T06:41:06.974Z,1018.14
2022-12-18T06:42:06.960Z,1018.18
2022-12-18T06:43:06.955Z,1018.19
2022-12-18T06:44:06.946Z,1018.22
2022-12-18T06:45:06.957Z,1018.27
2022-12-18T06:46:06.938Z,1018.29
2022-12-18T06:47:06.918Z,1018.25
2022-12-18T06:48:06.912Z,1018.2
2022-12-18T06:49:06.894Z,1018.21
2022-12-18T06:50:14.481Z,1018.31
2022-12-18T06:51:06.874Z,1018.22
2022-12-18T06:52:06.876Z,1018.3
2022-12-18T06:53:06.863Z,1018.32
2022-12-18T06:54:06.847Z,1018.34
2022-12-18T06:55:06.835Z,1018.25
2022-12-18T06:56:06.838Z,1018.29
2022-12-18T06:57:06.815Z,1018.33
2022-12-18T06:58:06.808Z,1018.27
2022-12-18T06:59:06.805Z,1018.31
2022-12-18T07:00:06.842Z,1018.26
2022-12-18T07:01:06.892Z,1018.35
2022-12-18T07:02:06.771Z,1018.33
2022-12-18T07:03:06.756Z,1018.23
2022-12-18T07:04:06.750Z,1018.31
2022-12-18T07:05:06.866Z,1018.28
2022-12-18T07:06:06.729Z,1018.26
2022-12-18T07:07:06.717Z,1018.29
2022-12-18T07:08:06.706Z,1018.23
2022-12-18T07:09:06.695Z,1018.21
2022-12-18T07:10:06.690Z,1018.18
2022-12-18T07:11:06.676Z,1018.26
2022-12-18T07:12:06.742Z,1018.28
2022-12-18T07:13:06.660Z,1018.32
2022-12-18T07:14:06.652Z,1018.32
2022-12-18T07:15:06.671Z,1018.33
2022-12-18T07:16:06.637Z,1018.39
2022-12-18T07:17:06.617Z,1018.35
2022-12-18T07:18:06.607Z,1018.37
2022-12-18T07:19:06.598Z,1018.34
2022-12-18T07:20:06.591Z,1018.38
2022-12-18T07:21:06.668Z,1018.37
2022-12-18T07:22:06.581Z,1018.44
2022-12-18T07:23:06.565Z,1018.44
2022-12-18T07:24:06.555Z,1018.4
2022-12-18T07:25:06.629Z,1018.42
2022-12-18T07:26:06.528Z,1018.4
2022-12-18T07:27:06.521Z,1018.37
2022-12-18T07:28:06.509Z,1018.43
2022-12-18T07:29:06.508Z,1018.45
2022-12-18T07:30:06.492Z,1018.42
2022-12-18T07:31:06.529Z,1018.42
2022-12-18T07:32:06.469Z,1018.42
2022-12-18T07:33:06.466Z,1018.45
2022-12-18T07:34:06.463Z,1018.4
2022-12-18T07:35:06.478Z,1018.36
2022-12-18T07:36:06.444Z,1018.38
2022-12-18T07:37:06.452Z,1018.32
2022-12-18T07:38:06.432Z,1018.3
2022-12-18T07:39:06.434Z,1018.25
2022-12-18T07:40:06.408Z,1018.23
2022-12-18T07:41:06.417Z,1018.23
2022-12-18T07:42:06.377Z,1018.21
2022-12-18T07:43:06.386Z,1018.2
2022-12-18T07:44:06.378Z,1018.15
2022-12-18T07:45:06.374Z,1018.16
2022-12-18T07:46:06.384Z,1018.24
2022-12-18T07:47:06.353Z,1018.16
2022-12-18T07:48:06.311Z,1018.21
2022-12-18T07:49:06.309Z,1018.13
2022-12-18T07:50:06.304Z,1018.16
2022-12-18T07:51:06.325Z,1018.13
2022-12-18T07:52:06.333Z,1018.14
2022-12-18T07:53:06.258Z,1018.17
2022-12-18T07:54:06.253Z,1018.12
2022-12-18T07:55:06.266Z,1018.15
2022-12-18T07:56:06.233Z,1018.14
2022-12-18T07:57:06.219Z,1018.14
2022-12-18T07:58:06.226Z,1018.15
2022-12-18T07:59:06.204Z,1018.07
2022-12-18T08:00:06.192Z,1018.1
2022-12-18T08:01:06.303Z,1018.13
2022-12-18T08:02:06.233Z,1018.12
2022-12-18T08:03:06.161Z,1018.09
2022-12-18T08:04:06.191Z,1018.08
2022-12-18T08:05:06.196Z,1018.12
2022-12-18T08:06:06.181Z,1018.07
2022-12-18T08:07:06.121Z,1018.1
2022-12-18T08:08:06.120Z,1018.08
2022-12-18T08:09:06.106Z,1018.2
2022-12-18T08:10:06.099Z,1018.13
2022-12-18T08:11:06.115Z,1018.21
2022-12-18T08:12:06.072Z,1018.2
2022-12-18T08:13:06.066Z,1018.24
2022-12-18T08:14:06.067Z,1018.27
2022-12-18T08:15:06.071Z,1018.27
2022-12-18T08:16:06.064Z,1018.27
2022-12-18T08:17:06.023Z,1018.25
2022-12-18T08:18:06.040Z,1018.2
2022-12-18T08:19:06.012Z,1018.32
2022-12-18T08:20:05.995Z,1018.28
2022-12-18T08:21:06.358Z,1018.31
2022-12-18T08:22:05.991Z,1018.19
2022-12-18T08:23:05.967Z,1018.2
2022-12-18T08:24:05.959Z,1018.19
2022-12-18T08:25:05.965Z,1018.16
2022-12-18T08:26:05.994Z,1018.16
2022-12-18T08:27:05.935Z,1018.13
2022-12-18T08:28:05.945Z,1018.06
2022-12-18T08:29:05.907Z,1018.06
2022-12-18T08:30:05.895Z,1018.07
2022-12-18T08:31:05.888Z,1017.93
2022-12-18T08:32:05.879Z,1017.99
2022-12-18T08:33:05.865Z,1017.91
2022-12-18T08:34:05.858Z,1017.86
2022-12-18T08:35:05.862Z,1017.89
2022-12-18T08:36:05.916Z,1017.89
2022-12-18T08:37:05.913Z,1017.81
2022-12-18T08:38:05.815Z,1017.91
2022-12-18T08:39:05.817Z,1017.85
2022-12-18T08:40:05.819Z,1017.84
2022-12-18T08:41:05.803Z,1017.81
2022-12-18T08:42:05.784Z,1017.78
2022-12-18T08:43:05.770Z,1017.82
2022-12-18T08:44:05.775Z,1017.82
2022-12-18T08:45:05.749Z,1017.85
2022-12-18T08:46:05.777Z,1017.75
2022-12-18T08:47:05.737Z,1017.77
2022-12-18T08:48:05.720Z,1017.8
2022-12-18T08:49:05.710Z,1017.72
2022-12-18T08:50:05.727Z,1017.77
2022-12-18T08:51:05.692Z,1017.8
2022-12-18T08:52:05.697Z,1017.79
2022-12-18T08:53:05.669Z,1017.77
2022-12-18T08:54:05.662Z,1017.87
2022-12-18T08:55:05.669Z,1017.85
2022-12-18T08:56:05.643Z,1017.78
2022-12-18T08:57:05.634Z,1017.88
2022-12-18T08:58:05.621Z,1017.77
2022-12-18T08:59:05.641Z,1017.81
2022-12-18T09:00:05.594Z,1017.76
2022-12-18T09:01:05.590Z,1017.73
2022-12-18T09:02:05.578Z,1017.8
2022-12-18T09:03:05.570Z,1017.8
2022-12-18T09:04:05.559Z,1017.76
2022-12-18T09:05:05.552Z,1017.77
2022-12-18T09:06:05.568Z,1017.66
2022-12-18T09:07:05.548Z,1017.76
2022-12-18T09:08:05.516Z,1017.72
2022-12-18T09:09:05.512Z,1017.69
2022-12-18T09:10:05.497Z,1017.81
2022-12-18T09:11:05.539Z,1017.77
2022-12-18T09:12:05.473Z,1017.77
2022-12-18T09:13:05.613Z,1017.74
2022-12-18T09:14:05.452Z,1017.79
2022-12-18T09:15:05.456Z,1017.78
2022-12-18T09:16:05.447Z,1017.76
2022-12-18T09:17:05.422Z,1017.84
2022-12-18T09:18:05.421Z,1017.67
2022-12-18T09:19:05.448Z,1017.76
2022-12-18T09:20:05.390Z,1017.73
2022-12-18T09:21:05.381Z,1017.76
2022-12-18T09:22:05.386Z,1017.79
2022-12-18T09:23:05.358Z,1017.83
2022-12-18T09:24:05.354Z,1017.88
2022-12-18T09:25:05.341Z,1017.85
2022-12-18T09:26:05.328Z,1017.91
2022-12-18T09:27:05.351Z,1017.88
2022-12-18T09:28:05.321Z,1017.95
2022-12-18T09:29:05.299Z,1017.9
2022-12-18T09:30:05.291Z,1017.89
2022-12-18T09:31:05.283Z,1017.9
2022-12-18T09:32:05.277Z,1017.81
2022-12-18T09:33:05.264Z,1017.8
2022-12-18T09:34:05.246Z,1017.81
2022-12-18T09:35:05.241Z,1017.82
2022-12-18T09:36:05.232Z,1017.81
2022-12-18T09:37:05.239Z,1017.84
2022-12-18T09:38:05.221Z,1017.81
2022-12-18T09:39:05.196Z,1017.9
2022-12-18T09:40:05.212Z,1017.9
2022-12-18T09:41:05.188Z,1017.85
2022-12-18T09:42:05.173Z,1017.8
2022-12-18T09:43:05.162Z,1017.82
2022-12-18T09:44:05.158Z,1017.75
2022-12-18T09:45:05.148Z,1017.76
2022-12-18T09:46:05.132Z,1017.8
2022-12-18T09:47:05.119Z,1017.83
2022-12-18T09:48:05.115Z,1017.82
2022-12-18T09:49:05.099Z,1017.84
2022-12-18T09:50:05.156Z,1017.86
2022-12-18T09:51:05.079Z,1017.92
2022-12-18T09:52:05.120Z,1017.9
2022-12-18T09:53:05.063Z,1017.94
2022-12-18T09:54:05.045Z,1017.88
2022-12-18T09:55:05.046Z,1017.95
2022-12-18T09:56:05.030Z,1017.97
2022-12-18T09:57:05.044Z,1017.97
2022-12-18T09:58:05.008Z,1017.93
2022-12-18T09:59:05.012Z,1017.94
2022-12-18T10:00:04.996Z,1017.94
2022-12-18T10:01:05.014Z,1017.94
2022-12-18T10:02:05.002Z,1017.93
2022-12-18T10:03:04.992Z,1017.91
2022-12-18T10:04:04.964Z,1017.94
2022-12-18T10:05:04.942Z,1017.89
2022-12-18T10:06:04.940Z,1017.84
2022-12-18T10:07:04.921Z,1017.84
2022-12-18T10:08:04.938Z,1017.83
2022-12-18T10:09:04.898Z,1017.8
2022-12-18T10:10:04.908Z,1017.78
2022-12-18T10:11:04.882Z,1017.81
2022-12-18T10:12:04.890Z,1017.75
2022-12-18T10:13:04.859Z,1017.76
2022-12-18T10:14:04.846Z,1017.77
2022-12-18T10:15:05.121Z,1017.81
2022-12-18T10:16:04.832Z,1017.84
2022-12-18T10:17:04.987Z,1017.83
2022-12-18T10:18:04.806Z,1017.9
2022-12-18T10:19:04.858Z,1017.8
2022-12-18T10:20:04.787Z,1017.89
2022-12-18T10:21:04.781Z,1017.85
2022-12-18T10:22:04.774Z,1017.79
2022-12-18T10:23:04.767Z,1017.85
2022-12-18T10:24:04.758Z,1017.86
2022-12-18T10:25:04.747Z,1017.94
2022-12-18T10:26:04.723Z,1017.93
2022-12-18T10:27:04.766Z,1017.86
2022-12-18T10:28:04.721Z,1017.97
2022-12-18T10:29:04.700Z,1017.83
2022-12-18T10:30:04.684Z,1017.89
2022-12-18T10:31:04.671Z,1017.79
2022-12-18T10:32:04.661Z,1017.81
2022-12-18T10:33:04.674Z,1017.67
2022-12-18T10:34:04.686Z,1017.71
2022-12-18T10:35:05.564Z,1017.67
2022-12-18T10:36:04.622Z,1017.62
2022-12-18T10:37:04.627Z,1017.52
2022-12-18T10:38:04.605Z,1017.55
2022-12-18T10:39:04.591Z,1017.45
2022-12-18T10:40:04.592Z,1017.38
2022-12-18T10:41:04.594Z,1017.39
2022-12-18T10:42:04.561Z,1017.35
2022-12-18T10:43:04.597Z,1017.28
2022-12-18T10:44:04.560Z,1017.41
2022-12-18T10:45:04.561Z,1017.31
2022-12-18T10:46:04.530Z,1017.27
2022-12-18T10:47:04.516Z,1017.23
2022-12-18T10:48:04.502Z,1017.27
2022-12-18T10:49:04.558Z,1017.25
2022-12-18T10:50:04.479Z,1017.18
2022-12-18T10:51:04.477Z,1017.23
2022-12-18T10:52:04.475Z,1017.12
2022-12-18T10:53:04.494Z,1017.19
2022-12-18T10:54:04.438Z,1017.18
2022-12-18T10:55:04.431Z,1017.22
2022-12-18T10:56:04.425Z,1017.19
2022-12-18T10:57:04.407Z,1017.14
2022-12-18T10:58:04.428Z,1017.23
2022-12-18T10:59:04.393Z,1017.23
2022-12-18T11:00:04.399Z,1017.21
2022-12-18T11:01:04.377Z,1017.22
2022-12-18T11:02:04.397Z,1017.23
2022-12-18T11:03:04.355Z,1017.3
2022-12-18T11:04:04.340Z,1017.24
2022-12-18T11:05:04.331Z,1017.05
2022-12-18T11:06:04.351Z,1017.05
2022-12-18T11:07:04.346Z,1016.99
2022-12-18T11:08:04.323Z,1016.98
2022-12-18T11:09:04.290Z,1016.96
2022-12-18T11:10:04.283Z,1016.96
2022-12-18T11:11:04.267Z,1016.94
2022-12-18T11:12:04.253Z,1016.94
2022-12-18T11:13:04.243Z,1016.91
2022-12-18T11:14:04.239Z,1016.99
2022-12-18T11:15:04.270Z,1017.01
2022-12-18T11:16:04.221Z,1017
2022-12-18T11:17:04.212Z,1017.07
2022-12-18T11:18:04.252Z,1017.05
2022-12-18T11:19:04.212Z,1017.03
2022-12-18T11:20:04.175Z,1017
2022-12-18T11:21:04.179Z,1016.96
2022-12-18T11:22:04.156Z,1016.91
2022-12-18T11:23:04.153Z,1016.81
2022-12-18T11:24:04.142Z,1016.85
2022-12-18T11:25:04.122Z,1016.81
2022-12-18T11:26:04.133Z,1016.77
2022-12-18T11:27:04.110Z,1016.64
2022-12-18T11:28:04.126Z,1016.67
2022-12-18T11:29:04.144Z,1016.69
2022-12-18T11:30:04.073Z,1016.54
2022-12-18T11:31:04.066Z,1016.48
2022-12-18T11:32:04.052Z,1016.47
2022-12-18T11:33:04.061Z,1016.46
2022-12-18T11:34:04.054Z,1016.43
2022-12-18T11:35:04.040Z,1016.41
2022-12-18T11:36:04.010Z,1016.34
2022-12-18T11:37:04.002Z,1016.29
2022-12-18T11:38:04.062Z,1016.25
2022-12-18T11:39:03.983Z,1016.31
2022-12-18T11:40:03.973Z,1016.21
2022-12-18T11:41:03.964Z,1016.22
2022-12-18T11:42:03.961Z,1016.22
2022-12-18T11:43:03.950Z,1016.27
2022-12-18T11:44:03.937Z,1016.32
2022-12-18T11:45:03.948Z,1016.34
2022-12-18T11:46:03.910Z,1016.37
2022-12-18T11:47:03.901Z,1016.23
2022-12-18T11:48:04.002Z,1016.22
2022-12-18T11:49:03.881Z,1016.22
2022-12-18T11:50:03.875Z,1016.22
2022-12-18T11:51:03.860Z,1016.21
2022-12-18T11:52:03.849Z,1016.23
2022-12-18T11:53:03.880Z,1016.27
2022-12-18T11:54:03.826Z,1016.25
2022-12-18T11:55:03.819Z,1016.2
2022-12-18T11:56:03.814Z,1016.2
2022-12-18T11:57:03.796Z,1016.14
2022-12-18T11:58:03.780Z,1016.11
2022-12-18T11:59:03.771Z,1016.1
2022-12-18T12:00:03.764Z,1016.05
2022-12-18T12:01:03.764Z,1016.07
2022-12-18T12:02:03.750Z,1016.11
2022-12-18T12:03:03.736Z,1016.1
2022-12-18T12:04:03.742Z,1016.04
2022-12-18T12:05:03.728Z,1016.08
2022-12-18T12:06:03.724Z,1016.08
2022-12-18T12:07:03.692Z,1016.17
2022-12-18T12:08:03.683Z,1016.11
2022-12-18T12:09:03.695Z,1016.1